createdAt,value
2019-03-30T00:03:09.408Z,10.80
2019-03-30T00:08:12.945Z,10.65
2019-03-30T00:13:16.568Z,10.40
2019-03-30T00:18:20.127Z,10.20
2019-03-30T00:23:23.683Z,10.12
2019-03-30T00:28:27.215Z,10.40
2019-03-30T00:33:30.766Z,10.53
2019-03-30T00:38:34.289Z,10.52
2019-03-30T00:43:37.843Z,10.51
2019-03-30T00:48:41.385Z,10.49
2019-03-30T00:53:44.940Z,10.41
2019-03-30T00:58:48.514Z,10.31
2019-03-30T01:03:52.735Z,10.24
2019-03-30T01:08:57.041Z,10.21
2019-03-30T01:14:03.040Z,10.15
2019-03-30T01:19:07.359Z,10.15
2019-03-30T01:24:11.325Z,10.08
2019-03-30T01:29:14.973Z,10.03
2019-03-30T01:34:18.496Z,9.99
2019-03-30T01:39:22.051Z,9.91
2019-03-30T01:44:25.595Z,9.84
2019-03-30T01:49:29.143Z,9.78
2019-03-30T01:54:32.663Z,9.73
2019-03-30T01:59:36.203Z,9.76
2019-03-30T02:04:39.729Z,9.72
2019-03-30T02:09:43.271Z,9.66
2019-03-30T02:14:46.796Z,9.62
2019-03-30T02:19:50.438Z,9.61
2019-03-30T02:24:53.971Z,9.57
2019-03-30T02:29:57.493Z,9.51
2019-03-30T02:35:01.050Z,9.47
2019-03-30T02:40:04.895Z,9.42
2019-03-30T02:45:09.643Z,9.38
2019-03-30T02:50:13.311Z,9.36
2019-03-30T02:55:19.325Z,9.42
2019-03-30T03:00:23.104Z,9.49
2019-03-30T03:05:26.690Z,9.58
2019-03-30T03:10:30.487Z,9.66
2019-03-30T03:15:34.002Z,9.73
2019-03-30T03:20:37.546Z,9.79
2019-03-30T03:25:41.103Z,9.78
2019-03-30T03:30:45.495Z,9.77
2019-03-30T03:35:49.121Z,9.70
2019-03-30T03:40:52.657Z,9.61
2019-03-30T03:45:56.201Z,9.54
2019-03-30T03:51:03.984Z,9.38
2019-03-30T03:56:09.419Z,9.27
2019-03-30T04:01:15.790Z,9.11
2019-03-30T04:06:23.543Z,9.03
2019-03-30T04:11:30.812Z,9.04
2019-03-30T04:16:34.364Z,8.99
2019-03-30T04:21:44.167Z,8.95
2019-03-30T04:26:43.381Z,8.83
2019-03-30T04:31:46.925Z,8.73
2019-03-30T04:36:50.532Z,8.61
2019-03-30T04:41:54.087Z,8.67
2019-03-30T04:46:57.666Z,8.69
2019-03-30T04:52:01.213Z,8.73
2019-03-30T04:57:04.783Z,8.74
2019-03-30T05:02:08.352Z,8.63
2019-03-30T05:07:11.902Z,8.51
2019-03-30T05:12:15.446Z,8.49
2019-03-30T05:17:18.975Z,8.52
2019-03-30T05:22:22.569Z,8.53
2019-03-30T05:27:26.153Z,8.45
2019-03-30T05:32:29.726Z,8.48
2019-03-30T05:37:33.266Z,8.45
2019-03-30T05:42:36.822Z,8.52
2019-03-30T05:47:40.396Z,8.74
2019-03-30T05:52:43.984Z,8.86
2019-03-30T05:57:47.545Z,8.96
2019-03-30T06:02:51.184Z,9.10
2019-03-30T06:07:54.809Z,9.17
2019-03-30T06:13:00.181Z,9.25
2019-03-30T06:18:03.757Z,9.46
2019-03-30T06:23:07.458Z,9.67
2019-03-30T06:28:11.070Z,9.90
2019-03-30T06:33:15.298Z,10.15
2019-03-30T06:38:18.865Z,10.46
2019-03-30T06:43:22.521Z,10.81
2019-03-30T06:48:26.067Z,11.13
2019-03-30T06:53:29.624Z,11.43
2019-03-30T06:58:33.163Z,11.72
2019-03-30T07:03:37.018Z,11.96
2019-03-30T07:08:42.693Z,12.21
2019-03-30T07:13:48.826Z,12.40
2019-03-30T07:18:53.120Z,12.71
2019-03-30T07:23:56.654Z,13.01
2019-03-30T07:29:00.341Z,13.30
2019-03-30T07:34:03.920Z,13.51
2019-03-30T07:39:07.453Z,13.79
2019-03-30T07:44:11.002Z,14.01
2019-03-30T07:49:14.705Z,14.19
2019-03-30T07:54:18.250Z,14.40
2019-03-30T07:59:21.900Z,14.68
2019-03-30T08:04:28.515Z,14.86
2019-03-30T08:09:30.892Z,15.11
2019-03-30T08:14:34.472Z,15.25
2019-03-30T08:19:38.018Z,15.36
2019-03-30T08:24:41.553Z,15.48
2019-03-30T08:29:45.092Z,15.76
2019-03-30T08:34:48.660Z,15.93
2019-03-30T08:39:52.192Z,16.09
2019-03-30T08:44:55.735Z,16.20
2019-03-30T08:49:59.357Z,16.43
2019-03-30T08:55:03.014Z,16.17
2019-03-30T09:00:07.969Z,16.41
2019-03-30T09:05:11.610Z,16.75
2019-03-30T09:10:15.207Z,16.93
2019-03-30T09:15:18.776Z,17.27
2019-03-30T09:20:22.331Z,17.41
2019-03-30T09:25:25.888Z,17.57
2019-03-30T09:30:29.537Z,17.59
2019-03-30T09:35:33.081Z,17.69
2019-03-30T09:40:36.611Z,17.93
2019-03-30T09:45:40.921Z,18.26
2019-03-30T09:50:45.284Z,18.24
2019-03-30T09:55:49.489Z,18.23
2019-03-30T10:00:53.246Z,18.30
2019-03-30T10:05:57.336Z,18.50
2019-03-30T10:11:00.906Z,18.75
2019-03-30T10:16:04.412Z,18.78
2019-03-30T10:21:07.959Z,18.91
2019-03-30T10:26:11.520Z,19.11
2019-03-30T10:31:15.092Z,19.08
2019-03-30T10:36:18.652Z,19.09
2019-03-30T10:41:22.180Z,19.48
2019-03-30T10:46:25.761Z,19.22
2019-03-30T10:51:29.290Z,19.21
2019-03-30T10:56:32.918Z,19.38
2019-03-30T11:01:36.542Z,19.54
2019-03-30T11:06:40.331Z,19.61
2019-03-30T11:11:43.997Z,19.46
2019-03-30T11:16:47.562Z,19.92
2019-03-30T11:21:51.106Z,19.91
2019-03-30T11:26:54.671Z,20.09
2019-03-30T11:31:58.241Z,20.35
2019-03-30T11:37:01.869Z,20.48
2019-03-30T11:42:05.639Z,20.76
2019-03-30T11:47:09.603Z,20.59
2019-03-30T11:52:24.880Z,20.71
2019-03-30T11:57:50.833Z,20.75
2019-03-30T12:03:40.701Z,20.81
2019-03-30T12:08:51.558Z,20.96
2019-03-30T12:14:04.185Z,21.09
2019-03-30T12:19:52.232Z,21.10
2019-03-30T12:25:07.432Z,21.30
2019-03-30T12:30:12.295Z,21.34
2019-03-30T12:35:17.267Z,21.36
2019-03-30T12:40:22.446Z,21.04
2019-03-30T12:45:26.818Z,20.90
2019-03-30T12:50:32.194Z,20.60
2019-03-30T12:55:48.698Z,20.94
2019-03-30T13:00:43.300Z,21.03
2019-03-30T13:05:48.282Z,21.05
2019-03-30T13:10:52.975Z,21.24
2019-03-30T13:15:57.892Z,21.29
2019-03-30T13:21:03.154Z,21.16
2019-03-30T13:26:07.544Z,21.26
2019-03-30T13:31:12.673Z,21.66
2019-03-30T13:36:17.502Z,21.77
2019-03-30T13:41:23.177Z,21.78
2019-03-30T13:46:27.521Z,21.92
2019-03-30T13:51:32.337Z,22.01
2019-03-30T13:56:38.104Z,21.87
2019-03-30T14:01:42.733Z,21.91
2019-03-30T14:06:47.177Z,22.05
2019-03-30T14:11:51.493Z,22.54
2019-03-30T14:16:56.133Z,22.71
2019-03-30T14:22:01.008Z,22.32
2019-03-30T14:27:05.640Z,22.14
2019-03-30T14:32:10.291Z,22.13
2019-03-30T14:37:16.772Z,22.38
2019-03-30T14:42:21.335Z,22.51
2019-03-30T14:47:25.942Z,22.26
2019-03-30T14:52:30.528Z,21.92
2019-03-30T14:57:34.943Z,22.31
2019-03-30T15:02:40.216Z,22.38
2019-03-30T15:07:44.563Z,21.89
2019-03-30T15:12:49.212Z,21.93
2019-03-30T15:17:53.676Z,22.02
2019-03-30T15:22:58.539Z,21.52
2019-03-30T15:28:03.243Z,21.09
2019-03-30T15:33:07.996Z,21.22
2019-03-30T15:38:12.956Z,21.93
2019-03-30T15:43:18.501Z,22.05
2019-03-30T15:48:23.495Z,21.95
2019-03-30T15:53:28.132Z,21.63
2019-03-30T15:58:32.971Z,21.60
2019-03-30T16:03:37.443Z,21.54
2019-03-30T16:08:41.894Z,21.43
2019-03-30T16:13:47.947Z,21.37
2019-03-30T16:18:52.377Z,21.18
2019-03-30T16:23:56.964Z,21.12
2019-03-30T16:29:01.480Z,20.90
2019-03-30T16:34:06.301Z,20.79
2019-03-30T16:39:10.759Z,20.68
2019-03-30T16:44:15.917Z,20.39
2019-03-30T16:49:20.912Z,20.21
2019-03-30T16:54:25.341Z,20.17
2019-03-30T16:59:30.970Z,19.94
2019-03-30T17:04:35.713Z,19.70
2019-03-30T17:09:40.212Z,19.55
2019-03-30T17:14:44.570Z,19.37
2019-03-30T17:19:49.105Z,19.09
2019-03-30T17:24:53.696Z,18.90
2019-03-30T17:29:58.882Z,18.79
2019-03-30T17:35:04.284Z,18.65
2019-03-30T17:40:09.766Z,18.52
2019-03-30T17:45:14.891Z,18.35
2019-03-30T17:50:19.437Z,18.24
2019-03-30T17:55:33.573Z,18.12
2019-03-30T18:00:30.526Z,17.93
2019-03-30T18:05:35.770Z,17.73
2019-03-30T18:10:40.402Z,17.55
2019-03-30T18:15:44.816Z,17.35
2019-03-30T18:20:49.275Z,17.23
2019-03-30T18:25:54.083Z,17.12
2019-03-30T18:30:58.589Z,17.05
2019-03-30T18:36:04.675Z,16.99
2019-03-30T18:41:09.189Z,16.83
2019-03-30T18:46:13.813Z,16.67
2019-03-30T18:51:21.899Z,16.53
2019-03-30T18:56:28.056Z,16.45
2019-03-30T19:01:35.941Z,16.36
2019-03-30T19:06:43.916Z,16.20
2019-03-30T19:11:47.576Z,16.15
2019-03-30T19:16:55.295Z,16.05
2019-03-30T19:22:11.839Z,15.95
2019-03-30T19:27:20.011Z,15.79
2019-03-30T19:32:38.176Z,15.79
2019-03-30T19:37:45.455Z,15.99
2019-03-30T19:42:54.952Z,16.11
2019-03-30T19:48:37.157Z,16.17
2019-03-30T19:53:40.975Z,16.16
2019-03-30T19:58:44.532Z,16.16
2019-03-30T20:03:48.072Z,16.16
2019-03-30T20:08:51.593Z,16.08
2019-03-30T20:13:55.147Z,16.03
2019-03-30T20:19:11.668Z,16.02
2019-03-30T20:24:04.363Z,15.95
2019-03-30T20:29:08.273Z,15.81
2019-03-30T20:34:11.888Z,15.63
2019-03-30T20:39:15.530Z,15.46
2019-03-30T20:44:19.065Z,15.28
2019-03-30T20:49:37.033Z,15.05
2019-03-30T20:54:42.757Z,14.96
2019-03-30T20:59:52.224Z,14.78
2019-03-30T21:05:03.878Z,14.70
2019-03-30T21:10:08.444Z,14.61
2019-03-30T21:15:13.882Z,14.53
2019-03-30T21:20:17.554Z,14.27
2019-03-30T21:25:21.317Z,14.08
2019-03-30T21:30:25.128Z,14.05
2019-03-30T21:35:28.976Z,14.00
2019-03-30T21:40:32.766Z,13.84
2019-03-30T21:45:36.534Z,13.71
2019-03-30T21:50:40.233Z,13.65
2019-03-30T21:56:02.562Z,13.69
2019-03-30T22:01:12.996Z,13.63
2019-03-30T22:06:19.671Z,13.52
2019-03-30T22:11:36.602Z,13.51
2019-03-30T22:16:46.488Z,13.46
2019-03-30T22:21:50.746Z,13.44
2019-03-30T22:26:54.487Z,13.41
2019-03-30T22:31:58.325Z,13.32
2019-03-30T22:37:02.112Z,13.14
2019-03-30T22:42:05.815Z,13.04
2019-03-30T22:47:09.510Z,13.00
2019-03-30T22:52:13.194Z,12.95
2019-03-30T22:57:16.912Z,12.87
2019-03-30T23:02:20.608Z,12.85
2019-03-30T23:07:24.339Z,12.75
2019-03-30T23:12:27.939Z,12.68
2019-03-30T23:17:35.342Z,12.56
2019-03-30T23:22:40.610Z,12.39
2019-03-30T23:27:44.142Z,12.42
2019-03-30T23:32:47.706Z,12.41
2019-03-30T23:37:51.302Z,12.45
2019-03-30T23:42:54.922Z,12.40
2019-03-30T23:47:58.463Z,12.34
2019-03-30T23:53:01.999Z,12.47
2019-03-30T23:58:05.545Z,12.59
